Terminal Aerodrome Forecast
Issued by NWS

Home | Current Version | Previous Version | Text Only | Print | Product List | Glossary On
Versions: 1 2 3 4 5 6 7 8 9 10 11 12 13 14
000
FTUS42 KGSP 291120
TAFAND
TAF
KAND 291120Z 2912/3012 VRB02KT P6SM SCT250
     FM291400 26006KT P6SM SCT250
     FM291900 24009KT P6SM BKN050
     FM292100 24011G18KT P6SM BKN045 PROB30 2921/3001 4SM -TSRA
      OVC025CB
     FM300100 24006KT P6SM BKN100 PROB30 3001/3006 4SM -TSRA
      OVC040CB
     FM300600 VRB02KT P6SM BKN090=

USA.gov is the U.S. government's official web portal to all federal, state and local government web resources and services.